Rudd, IA (50471)

9:38 PM CDT on August 31, 2015 (GMT -0500)
IEM | | Change Station
CLOSE
Current Station
Personal Weather Station
Location: Rockford, IA
Elevation: 1036 ft
Nearby Weather Stations

Elev 1036 ft 43.05 °N, 92.93 °W | Updated 19 minutes ago

Partly Cloudy
Partly Cloudy
72 °F
Feels Like 72 °F
N
0
Wind Variable Wind from North
Gusts 0.0 mph

Today
High -- | Low -- °F
--% Chance of Precip.
Yesterday
High -- | Low -- °F
Precip. -- in
6:34 AM 7:48 PM
Waning Gibbous, 92% visible
Pressure 29.97 in
Visibility 8.0 miles
Clouds Scattered Clouds 3800 ft
Mostly Cloudy 4700 ft
Dew Point 72 °F
Humidity 100%
Rainfall in
Snow Depth Not available.
UV 0 out of 12
Pollen 10.80 out of 12
Air Quality Not available.
Flu Activity Not available.
METAR KCCY 010235Z AUTO 15006KT 8SM SCT038 BKN047 24/24 A2997 RMK AO2
Pressure 29.97 in
Visibility 8.0 miles
Clouds Scattered Clouds 3800 ft
Mostly Cloudy 4700 ft
Dew Point 72 °F
Humidity 100%
Rainfall in
Snow Depth Not available.
UV 0 out of 12
Pollen 10.80 out of 12
Air Quality Not available.
Flu Activity Not available.
METAR KCCY 010235Z AUTO 15006KT 8SM SCT038 BKN047 24/24 A2997 RMK AO2

10-Day Weather Forecast

×

Almanac

Astronomy

Aug. 31, 2015 Rise Set
Actual Time
Civil Twilight
Nautical Twilight
Astronomical Twilight
Moon
Length of Visible Light
Length of Day
Tomorrow will be .
, % of the Moon is Illuminated

Today's Extremes

State Highs State Lows

Community

WunderPhotos

Upload Photos

1,851,455 photos uploaded!

WunderBlogs® & News

Nearby

Air Quality

  Air Quality AQ Index Pollutant
Not available.

Snow Depth

Station Depth Elevation

Earthquake Activity

City Distance Mag. Time & Date
Minimum magnitude displayed is 2.5.

Coastal Water Temperatures

Place Temperature

Stations

Nearby Weather Stations

Station Location Temp. Windchill Dew Point Humidity Wind Precip. Elev Updated Type